createdAt,value
2023-01-30T00:01:19.090Z,22.92
2023-01-30T00:03:47.639Z,26.95
2023-01-30T00:06:16.470Z,24.95
2023-01-30T00:08:46.190Z,26.67
2023-01-30T00:11:16.302Z,23.17
2023-01-30T00:13:45.410Z,26.83
2023-01-30T00:16:22.257Z,24.95
2023-01-30T00:18:51.942Z,24.23
2023-01-30T00:21:22.309Z,25.17
2023-01-30T00:23:54.269Z,25.52
2023-01-30T00:26:24.594Z,26.02
2023-01-30T00:28:54.959Z,28.30
2023-01-30T00:31:29.715Z,25.40
2023-01-30T00:34:27.976Z,27.17
2023-01-30T00:37:07.849Z,28.65
2023-01-30T00:39:37.843Z,36.03
2023-01-30T00:42:25.866Z,35.80
2023-01-30T00:45:11.500Z,34.85
2023-01-30T00:47:42.195Z,38.37
2023-01-30T00:50:13.056Z,39.90
2023-01-30T00:52:46.493Z,32.33
2023-01-30T00:55:17.058Z,32.90
2023-01-30T00:57:47.592Z,32.67
2023-01-30T01:00:23.402Z,34.25
2023-01-30T01:02:57.978Z,31.65
2023-01-30T01:05:32.261Z,32.00
2023-01-30T01:08:03.406Z,29.45
2023-01-30T01:10:31.795Z,36.67
2023-01-30T01:13:03.587Z,34.50
2023-01-30T01:15:31.896Z,33.45
2023-01-30T01:18:03.962Z,33.15
2023-01-30T01:20:32.298Z,32.95
2023-01-30T01:23:04.307Z,29.80
2023-01-30T01:25:32.599Z,25.45
2023-01-30T01:28:32.393Z,26.88
2023-01-30T01:31:08.299Z,24.75
2023-01-30T01:36:29.430Z,20.83
2023-01-30T01:39:04.771Z,27.35
2023-01-30T01:41:32.085Z,26.38
2023-01-30T01:44:03.235Z,27.23
2023-01-30T01:46:34.195Z,24.02
2023-01-30T01:49:07.429Z,24.55
2023-01-30T01:51:41.645Z,28.38
2023-01-30T01:54:15.096Z,27.33
2023-01-30T01:56:49.194Z,22.88
2023-01-30T01:59:24.781Z,24.42
2023-01-30T02:02:01.116Z,24.80
2023-01-30T02:04:54.369Z,25.90
2023-01-30T02:07:26.803Z,25.17
2023-01-30T02:09:55.216Z,23.48
2023-01-30T02:12:24.601Z,30.55
2023-01-30T02:14:57.544Z,25.35
2023-01-30T02:17:26.198Z,25.38
2023-01-30T02:20:06.424Z,27.42
2023-01-30T02:23:25.622Z,23.80
2023-01-30T02:26:32.667Z,25.75
2023-01-30T02:29:33.997Z,26.48
2023-01-30T02:32:11.873Z,26.85
2023-01-30T02:34:51.920Z,26.40
2023-01-30T02:37:36.392Z,28.60
2023-01-30T02:40:17.925Z,26.85
2023-01-30T02:43:01.445Z,27.88
2023-01-30T02:45:37.183Z,31.80
2023-01-30T02:48:20.059Z,26.83
2023-01-30T02:50:55.155Z,32.53
2023-01-30T02:53:23.413Z,33.03
2023-01-30T02:55:53.675Z,29.70
2023-01-30T02:58:24.945Z,31.48
2023-01-30T03:01:08.680Z,35.00
2023-01-30T03:03:55.188Z,36.00
2023-01-30T03:06:43.225Z,34.58
2023-01-30T03:09:19.749Z,35.67
2023-01-30T03:11:57.449Z,35.88
2023-01-30T03:14:30.478Z,38.10
2023-01-30T03:17:02.037Z,38.55
2023-01-30T03:19:31.947Z,35.33
2023-01-30T03:22:01.937Z,39.40
2023-01-30T03:24:30.429Z,37.95
2023-01-30T03:27:09.355Z,36.17
2023-01-30T03:29:38.628Z,39.80
2023-01-30T03:32:07.812Z,34.42
2023-01-30T03:34:41.968Z,33.97
2023-01-30T03:37:12.354Z,29.50
2023-01-30T03:39:40.630Z,31.40
2023-01-30T03:42:15.588Z,31.27
2023-01-30T03:44:44.267Z,34.87
2023-01-30T03:47:12.627Z,27.40
2023-01-30T03:49:42.567Z,32.47
2023-01-30T03:52:11.903Z,24.42
2023-01-30T03:54:41.251Z,30.13
2023-01-30T03:57:09.949Z,28.60
2023-01-30T03:59:39.266Z,29.80
2023-01-30T04:02:13.921Z,28.98
2023-01-30T04:04:45.306Z,26.45
2023-01-30T04:07:13.645Z,27.10
2023-01-30T04:09:44.500Z,26.25
2023-01-30T04:12:15.291Z,31.05
2023-01-30T04:14:53.475Z,32.45
2023-01-30T04:17:45.186Z,33.10
2023-01-30T04:20:38.995Z,40.40
2023-01-30T04:23:08.834Z,37.90
2023-01-30T04:25:38.081Z,36.60
2023-01-30T04:28:08.944Z,42.60
2023-01-30T04:30:39.251Z,33.65
2023-01-30T04:33:26.148Z,41.20
2023-01-30T04:35:57.792Z,35.42
2023-01-30T04:38:27.817Z,43.40
2023-01-30T04:40:58.752Z,44.03
2023-01-30T04:43:30.623Z,46.65
2023-01-30T04:46:01.714Z,35.42
2023-01-30T04:48:32.109Z,41.25
2023-01-30T04:51:03.850Z,35.33
2023-01-30T04:53:32.204Z,33.85
2023-01-30T04:56:02.561Z,32.13
2023-01-30T04:58:31.979Z,35.75
2023-01-30T05:01:15.832Z,34.28
2023-01-30T05:03:47.054Z,37.30
2023-01-30T05:06:36.660Z,31.42
2023-01-30T05:09:10.631Z,43.65
2023-01-30T05:11:41.914Z,47.33
2023-01-30T05:14:10.312Z,48.58
2023-01-30T05:16:39.765Z,49.78
2023-01-30T05:19:14.547Z,44.83
2023-01-30T05:21:57.573Z,47.33
2023-01-30T05:24:25.893Z,47.00
2023-01-30T05:26:54.163Z,49.35
2023-01-30T05:29:22.601Z,44.80
2023-01-30T05:31:51.985Z,34.15
2023-01-30T05:34:21.354Z,41.92
2023-01-30T05:36:49.780Z,38.28
2023-01-30T05:39:20.510Z,38.33
2023-01-30T05:41:48.952Z,37.60
2023-01-30T05:44:18.462Z,36.60
2023-01-30T05:46:46.804Z,36.33
2023-01-30T05:49:15.265Z,36.10
2023-01-30T05:51:44.623Z,40.97
2023-01-30T05:54:12.940Z,32.90
2023-01-30T05:56:45.672Z,43.95
2023-01-30T05:59:15.460Z,56.67
2023-01-30T06:01:44.807Z,43.53
2023-01-30T06:04:14.407Z,41.40
2023-01-30T06:07:11.279Z,53.95
2023-01-30T06:12:17.424Z,39.80
2023-01-30T06:15:09.008Z,42.92
2023-01-30T06:17:37.422Z,38.20
2023-01-30T06:20:13.943Z,41.15
2023-01-30T06:22:43.244Z,45.42
2023-01-30T06:25:13.771Z,48.10
2023-01-30T06:27:44.624Z,51.60
2023-01-30T06:30:14.986Z,71.90
2023-01-30T06:32:45.403Z,63.80
2023-01-30T06:35:15.131Z,71.25
2023-01-30T06:37:47.862Z,42.97
2023-01-30T06:40:20.312Z,36.08
2023-01-30T06:42:51.307Z,35.08
2023-01-30T06:45:23.313Z,32.58
2023-01-30T06:47:53.925Z,33.63
2023-01-30T06:50:27.661Z,39.95
2023-01-30T06:53:04.306Z,36.72
2023-01-30T06:55:36.923Z,38.08
2023-01-30T06:58:20.107Z,39.95
2023-01-30T07:00:49.640Z,33.17
2023-01-30T07:03:30.162Z,39.45
2023-01-30T07:06:00.466Z,34.42
2023-01-30T07:08:37.807Z,33.15
2023-01-30T07:11:07.892Z,35.22
2023-01-30T07:13:37.914Z,33.15
2023-01-30T07:17:07.592Z,33.67
2023-01-30T07:19:37.028Z,34.63
2023-01-30T07:22:09.260Z,36.80
2023-01-30T07:24:39.896Z,43.10
2023-01-30T07:27:08.943Z,38.63
2023-01-30T07:29:41.466Z,32.67
2023-01-30T07:32:16.666Z,37.67
2023-01-30T07:34:46.053Z,35.13
2023-01-30T07:37:19.132Z,35.88
2023-01-30T07:39:48.665Z,37.53
2023-01-30T07:42:21.032Z,37.85
2023-01-30T07:44:51.975Z,33.83
2023-01-30T07:47:51.091Z,33.83
2023-01-30T07:50:20.266Z,31.63
2023-01-30T07:53:31.671Z,31.00
2023-01-30T07:56:33.056Z,35.28
2023-01-30T07:59:08.537Z,32.15
2023-01-30T08:05:16.441Z,31.60
2023-01-30T08:07:47.626Z,31.98
2023-01-30T08:10:18.007Z,35.42
2023-01-30T08:13:51.602Z,35.03
2023-01-30T08:16:24.275Z,32.35
2023-01-30T08:20:20.124Z,35.90
2023-01-30T08:22:56.432Z,38.35
2023-01-30T08:29:41.641Z,30.58
2023-01-30T08:32:15.979Z,39.50
2023-01-30T08:34:46.403Z,39.75
2023-01-30T08:37:15.792Z,53.35
2023-01-30T08:40:11.063Z,49.22
2023-01-30T08:42:45.252Z,48.83
2023-01-30T08:45:19.917Z,46.47
2023-01-30T08:48:20.913Z,30.70
2023-01-30T08:50:53.236Z,36.25
2023-01-30T08:53:23.257Z,41.28
2023-01-30T08:55:53.235Z,31.75
2023-01-30T08:58:27.604Z,33.40
2023-01-30T09:00:55.887Z,34.67
2023-01-30T09:04:25.246Z,35.85
2023-01-30T09:06:59.206Z,41.40
2023-01-30T09:09:35.907Z,31.48
2023-01-30T09:12:05.764Z,31.55
2023-01-30T09:14:35.516Z,33.28
2023-01-30T09:17:07.208Z,33.13
2023-01-30T09:19:37.639Z,28.50
2023-01-30T09:22:11.253Z,29.30
2023-01-30T09:25:00.321Z,29.90
2023-01-30T09:27:29.747Z,26.80
2023-01-30T09:30:16.434Z,27.83
2023-01-30T09:33:43.260Z,33.15
2023-01-30T09:36:13.568Z,29.35
2023-01-30T09:38:42.965Z,32.42
2023-01-30T09:41:53.319Z,31.75
2023-01-30T09:45:01.668Z,31.42
2023-01-30T09:47:39.792Z,35.60
2023-01-30T09:50:25.149Z,31.20
2023-01-30T09:52:59.184Z,26.02
2023-01-30T09:55:38.565Z,28.40
2023-01-30T09:58:43.558Z,30.30
2023-01-30T10:01:21.525Z,32.25
2023-01-30T10:04:03.388Z,31.08
2023-01-30T10:06:58.819Z,33.20
2023-01-30T10:09:37.021Z,29.58
2023-01-30T10:12:20.837Z,25.98
2023-01-30T10:15:06.112Z,28.52
2023-01-30T10:17:53.806Z,30.65
2023-01-30T10:20:45.092Z,30.23
2023-01-30T10:23:51.447Z,33.90
2023-01-30T10:26:30.675Z,31.90
2023-01-30T10:29:32.899Z,29.98
2023-01-30T10:32:29.163Z,24.63
2023-01-30T10:35:07.953Z,32.63
2023-01-30T10:37:57.331Z,29.65
2023-01-30T10:40:35.902Z,24.23
2023-01-30T10:43:11.177Z,31.95
2023-01-30T10:45:50.770Z,39.92
2023-01-30T10:48:55.737Z,32.10
2023-01-30T10:51:35.350Z,33.78
2023-01-30T10:54:17.976Z,28.20
2023-01-30T10:56:59.141Z,31.77
2023-01-30T11:00:05.210Z,27.63
2023-01-30T11:03:01.647Z,29.73
2023-01-30T11:06:44.696Z,24.48
2023-01-30T11:10:24.682Z,33.78
2023-01-30T11:12:58.032Z,32.58
2023-01-30T11:15:40.776Z,32.47
2023-01-30T11:18:42.192Z,30.42
2023-01-30T11:21:27.086Z,35.47
2023-01-30T11:24:07.129Z,36.55
2023-01-30T11:26:53.845Z,32.13
2023-01-30T11:30:30.862Z,31.95
2023-01-30T11:34:03.337Z,33.00
2023-01-30T11:37:15.443Z,30.60
2023-01-30T11:39:54.317Z,36.58
2023-01-30T11:42:54.189Z,34.35
2023-01-30T11:50:14.746Z,33.30
2023-01-30T11:52:51.080Z,35.63
2023-01-30T11:56:00.209Z,36.80
2023-01-30T11:58:41.118Z,38.03
2023-01-30T12:01:18.114Z,40.35
2023-01-30T12:03:51.612Z,39.55
2023-01-30T12:07:05.464Z,37.03
2023-01-30T12:09:40.723Z,34.13
2023-01-30T12:12:29.926Z,34.38
2023-01-30T12:15:21.790Z,34.30
2023-01-30T12:18:00.953Z,30.02
2023-01-30T12:20:42.102Z,28.58
2023-01-30T12:23:39.441Z,28.15
2023-01-30T12:26:42.132Z,28.52
2023-01-30T12:29:52.619Z,31.95
2023-01-30T12:32:28.872Z,26.58
2023-01-30T12:35:00.314Z,25.95
2023-01-30T12:37:46.781Z,26.98
2023-01-30T12:40:30.266Z,28.25
2023-01-30T12:43:15.827Z,28.50
2023-01-30T12:45:51.877Z,25.00
2023-01-30T12:48:48.810Z,23.85
2023-01-30T12:51:49.456Z,26.65
2023-01-30T12:54:52.170Z,26.77
2023-01-30T12:57:46.275Z,23.85
2023-01-30T13:00:35.759Z,31.70
2023-01-30T13:03:24.460Z,28.23
2023-01-30T13:06:29.324Z,25.48
2023-01-30T13:09:11.244Z,28.40
2023-01-30T13:11:55.115Z,27.48
2023-01-30T13:15:02.473Z,28.63
2023-01-30T13:20:51.358Z,24.25
2023-01-30T13:23:47.464Z,28.10
2023-01-30T13:26:20.605Z,25.65
2023-01-30T13:28:52.543Z,25.15
2023-01-30T13:31:25.272Z,26.27
2023-01-30T13:34:28.020Z,25.58
2023-01-30T13:37:27.434Z,23.92
2023-01-30T13:40:17.979Z,24.17
2023-01-30T13:42:53.625Z,24.65
2023-01-30T13:45:38.107Z,27.92
2023-01-30T13:48:27.147Z,23.33
2023-01-30T13:51:24.273Z,25.45
2023-01-30T13:53:59.856Z,26.75
2023-01-30T13:57:03.815Z,27.00
2023-01-30T14:00:18.034Z,27.95
2023-01-30T14:03:25.905Z,24.70
2023-01-30T14:06:35.843Z,25.77
2023-01-30T14:09:27.300Z,25.05
2023-01-30T14:12:04.114Z,23.30
2023-01-30T14:14:33.991Z,23.67
2023-01-30T14:17:16.300Z,26.23
2023-01-30T14:20:16.446Z,24.83
2023-01-30T14:23:59.397Z,26.05
2023-01-30T14:27:01.804Z,31.75
2023-01-30T14:30:36.534Z,24.80
2023-01-30T14:33:49.072Z,21.17
2023-01-30T14:37:32.829Z,26.50
2023-01-30T14:40:34.248Z,20.30
2023-01-30T14:43:48.517Z,21.95
2023-01-30T14:46:57.197Z,21.27
2023-01-30T14:49:58.803Z,24.30
2023-01-30T14:53:29.327Z,28.17
2023-01-30T14:56:04.171Z,22.88
2023-01-30T14:59:40.447Z,25.85
2023-01-30T15:02:43.753Z,22.52
2023-01-30T15:05:45.887Z,23.42
2023-01-30T15:08:20.554Z,19.50
2023-01-30T15:11:06.486Z,24.13
2023-01-30T15:23:47.009Z,37.65
2023-01-30T15:26:48.395Z,43.60
2023-01-30T15:29:51.380Z,38.97
2023-01-30T15:32:30.179Z,31.67
2023-01-30T15:35:32.883Z,33.97
2023-01-30T15:38:06.398Z,32.08
2023-01-30T15:41:10.955Z,30.48
2023-01-30T15:44:16.900Z,29.05
2023-01-30T15:46:52.386Z,25.80
2023-01-30T15:49:42.790Z,25.40
2023-01-30T15:52:47.346Z,28.92
2023-01-30T15:55:38.183Z,28.08
2023-01-30T15:58:12.165Z,23.60
2023-01-30T16:00:47.334Z,30.42
2023-01-30T16:03:21.787Z,27.23
2023-01-30T16:05:51.217Z,26.40
2023-01-30T16:08:23.903Z,30.13
2023-01-30T16:10:55.666Z,27.25
2023-01-30T16:13:30.190Z,28.38
2023-01-30T16:16:05.895Z,28.95
2023-01-30T16:18:42.447Z,27.83
2023-01-30T16:21:17.616Z,30.67
2023-01-30T16:23:56.369Z,28.20
2023-01-30T16:26:27.073Z,31.95
2023-01-30T16:29:03.966Z,35.97
2023-01-30T16:31:49.721Z,40.95
2023-01-30T16:34:30.482Z,51.00
2023-01-30T16:37:04.424Z,46.25
2023-01-30T16:39:36.444Z,41.35
2023-01-30T16:42:31.259Z,36.53
2023-01-30T16:45:55.160Z,38.00
2023-01-30T16:48:34.639Z,39.47
2023-01-30T16:51:35.282Z,48.80
2023-01-30T16:54:19.351Z,46.83
2023-01-30T16:56:56.166Z,50.95
2023-01-30T16:59:41.452Z,40.20
2023-01-30T17:02:43.282Z,30.90
2023-01-30T17:05:49.454Z,40.53
2023-01-30T17:09:16.470Z,37.33
2023-01-30T17:11:49.253Z,42.80
2023-01-30T17:14:23.271Z,38.17
2023-01-30T17:20:08.600Z,38.17
2023-01-30T17:22:42.074Z,47.58
2023-01-30T17:25:45.436Z,39.47
2023-01-30T17:28:24.879Z,42.97
2023-01-30T17:30:55.486Z,30.08
2023-01-30T17:33:32.078Z,33.95
2023-01-30T17:36:23.990Z,38.08
2023-01-30T17:39:00.810Z,28.52
2023-01-30T17:41:38.341Z,28.02
2023-01-30T17:44:34.374Z,35.63
2023-01-30T17:47:03.995Z,31.75
2023-01-30T17:49:42.499Z,31.45
2023-01-30T17:52:16.772Z,26.58
2023-01-30T17:54:53.280Z,27.17
2023-01-30T17:57:25.252Z,28.13
2023-01-30T18:00:06.385Z,28.35
2023-01-30T18:03:09.812Z,28.98
2023-01-30T18:05:45.245Z,27.17
2023-01-30T18:08:18.923Z,27.10
2023-01-30T18:10:48.771Z,23.33
2023-01-30T18:13:49.099Z,26.73
2023-01-30T18:16:38.271Z,22.23
2023-01-30T18:19:15.147Z,21.40
2023-01-30T18:21:51.130Z,15.48
2023-01-30T18:24:22.477Z,19.42
2023-01-30T18:26:53.853Z,20.92
2023-01-30T18:29:26.593Z,23.00
2023-01-30T18:32:05.505Z,20.67
2023-01-30T18:35:08.127Z,26.38
2023-01-30T18:37:45.413Z,26.83
2023-01-30T18:40:18.948Z,15.55
2023-01-30T18:42:50.895Z,25.55
2023-01-30T18:45:23.424Z,21.00
2023-01-30T18:48:31.285Z,16.77
2023-01-30T18:51:10.349Z,16.45
2023-01-30T18:54:10.845Z,15.18
2023-01-30T18:56:50.751Z,11.88
2023-01-30T18:59:51.268Z,8.73
2023-01-30T19:02:42.344Z,11.77
2023-01-30T19:05:16.112Z,8.23
2023-01-30T19:07:47.145Z,14.00
2023-01-30T19:10:23.189Z,11.93
2023-01-30T19:13:13.326Z,11.02
2023-01-30T19:15:50.154Z,9.48
2023-01-30T19:18:20.456Z,9.95
2023-01-30T19:20:58.231Z,11.10
2023-01-30T19:23:34.561Z,12.10
2023-01-30T19:26:07.211Z,11.10
2023-01-30T19:28:39.108Z,16.27
2023-01-30T19:31:16.160Z,12.13
2023-01-30T19:33:57.429Z,12.20
2023-01-30T19:37:26.689Z,13.13
2023-01-30T19:40:57.819Z,12.00
2023-01-30T19:43:31.098Z,10.55
2023-01-30T19:46:03.264Z,14.10
2023-01-30T19:49:51.180Z,14.32
2023-01-30T19:57:04.435Z,12.40
2023-01-30T20:00:00.976Z,8.95
2023-01-30T20:04:02.670Z,7.90
2023-01-30T20:11:25.626Z,8.70
2023-01-30T20:13:57.014Z,5.53
2023-01-30T20:16:32.014Z,8.70
2023-01-30T20:19:05.386Z,9.07
2023-01-30T20:21:38.359Z,6.35
2023-01-30T20:24:14.277Z,8.65
2023-01-30T20:26:51.589Z,8.18
2023-01-30T20:29:54.079Z,6.45
2023-01-30T20:32:30.159Z,8.07
2023-01-30T20:36:11.197Z,8.35
2023-01-30T20:38:47.368Z,7.25
2023-01-30T20:46:06.991Z,6.50
2023-01-30T20:49:05.773Z,8.82
2023-01-30T20:51:41.202Z,6.28
2023-01-30T20:54:29.009Z,6.28
2023-01-30T20:57:03.742Z,5.38
2023-01-30T20:59:34.297Z,4.68
2023-01-30T21:02:08.023Z,5.43
2023-01-30T21:04:40.386Z,7.75
2023-01-30T21:07:10.418Z,6.43
2023-01-30T21:09:43.781Z,5.60
2023-01-30T21:12:16.566Z,5.20
2023-01-30T21:14:47.535Z,5.53
2023-01-30T21:17:53.793Z,4.90
2023-01-30T21:20:27.910Z,3.90
2023-01-30T21:27:32.864Z,5.97
2023-01-30T21:31:28.617Z,9.40
2023-01-30T21:34:27.527Z,4.50
2023-01-30T21:37:17.679Z,4.65
2023-01-30T21:40:39.044Z,5.80
2023-01-30T21:43:33.640Z,4.88
2023-01-30T21:46:03.319Z,5.47
2023-01-30T21:49:09.961Z,4.82
2023-01-30T21:51:42.419Z,6.13
2023-01-30T21:54:19.857Z,5.00
2023-01-30T21:56:49.630Z,3.92
2023-01-30T21:59:18.639Z,3.78
2023-01-30T22:01:46.942Z,3.33
2023-01-30T22:04:19.612Z,3.63
2023-01-30T22:07:20.607Z,5.55
2023-01-30T22:09:53.317Z,4.15
2023-01-30T22:12:23.647Z,4.90
2023-01-30T22:14:53.855Z,5.10
2023-01-30T22:17:51.081Z,3.90
2023-01-30T22:20:34.629Z,4.45
2023-01-30T22:23:10.869Z,3.97
2023-01-30T22:25:44.211Z,4.10
2023-01-30T22:28:14.446Z,4.55
2023-01-30T22:30:43.729Z,4.57
2023-01-30T22:33:11.999Z,5.07
2023-01-30T22:35:49.472Z,7.18
2023-01-30T22:38:29.783Z,3.42
2023-01-30T22:41:06.715Z,3.55
2023-01-30T22:43:39.428Z,4.57
2023-01-30T22:46:12.024Z,2.35
2023-01-30T22:48:59.573Z,5.72
2023-01-30T22:51:56.279Z,2.67
2023-01-30T22:54:27.667Z,3.42
2023-01-30T22:57:27.206Z,7.07
2023-01-30T22:59:56.477Z,3.63
2023-01-30T23:02:59.541Z,9.30
2023-01-30T23:05:35.868Z,5.45
2023-01-30T23:08:05.271Z,3.38
2023-01-30T23:10:40.357Z,4.35
2023-01-30T23:13:16.817Z,5.60
2023-01-30T23:15:46.825Z,3.63
2023-01-30T23:18:35.844Z,3.33
2023-01-30T23:21:04.167Z,3.13
2023-01-30T23:24:06.577Z,3.00
2023-01-30T23:26:42.659Z,3.35
2023-01-30T23:29:17.319Z,3.33
2023-01-30T23:31:48.006Z,3.40
2023-01-30T23:35:21.072Z,5.32
2023-01-30T23:39:03.961Z,5.25
2023-01-30T23:42:31.004Z,4.65
2023-01-30T23:45:30.148Z,6.18
2023-01-30T23:48:32.507Z,3.58
2023-01-30T23:55:33.412Z,1.80
2023-01-30T23:58:30.106Z,3.80
